• Join FlightAware (Why Join?)
  • Login
  • US Flag 
03:31PM EDT


 

Airport Tracker/Info


-or-


 

Live Flight TrackerFlight Track Log ✈ SWA1618 ✈ 28-Dec-2013 ✈ KMDW - KBUF

Flight Track Log - Related Links

Times and Time Zones

All times are in EST time to prevent confusion due to time zone crossing. See the SWA1618 flight status page for this flight to view local times or setup timezone preferences in your user account.

Time Position Orientation Groundspeed Altitude Reporting Facility
EST Latitude Longitude Course Direction KTS MPH feet Rate Location/Type
12:15AM 41.7667 -87.7667 143° Southeast 158 182 2,600  Level Chicago TRACON
12:15AM 41.7500 -87.7500 143° Southeast 203 234 2,900 1,680 Climbing Chicago TRACON
12:16AM 41.7528 -87.6972 86° East 285 328 4,300 2,760 Climbing Chicago Center
12:17AM 41.7592 -87.5881 85° East 294 338 7,600 3,660 Climbing Chicago Center
12:18AM 41.7622 -87.4692 88° East 314 361 11,700 3,480 Climbing Chicago Center
12:19AM 41.7658 -87.3378 88° East 348 400 14,600 2,880 Climbing Chicago Center
12:20AM 41.7628 -87.1969 92° East 373 429 17,600 2,940 Climbing Chicago Center
12:21AM 41.7619 -87.0497 90° East 391 450 20,600 2,700 Climbing Chicago Center
12:22AM 41.7628 -86.8961 90° East 409 471 23,100 2,160 Climbing Chicago Center
12:23AM 41.7661 -86.7392 88° East 418 481 25,000 1,860 Climbing Chicago Center
12:24AM 41.7664 -86.5564 90° East 456 525 26,900 1,560 Climbing Chicago Center
12:25AM 41.7678 -86.3758 89° East 480 552 28,200 1,260 Climbing Chicago Center
12:26AM 41.7894 -86.1867 81° East 512 589 29,500 1,380 Climbing Chicago Center
12:27AM 41.8244 -85.9908 76° East 534 615 31,000 720 Climbing Chicago Center
12:28AM 41.8581 -85.7911 77° East 544 626 31,000  Level Chicago Center
12:29AM 41.8928 -85.5903 77° East 546 628 31,000  Level Chicago Center
12:30AM 41.9250 -85.3906 78° East 542 624 31,000  Level Chicago Center
12:31AM 41.9517 -85.1911 80° East 538 619 31,000  Level Chicago Center
12:32AM 41.9511 -84.9958 90° East 522 601 31,000  Level Chicago Center
12:33AM 41.9494 -84.8008 91° East 522 601 31,000  Level Chicago Center
12:34AM 41.9486 -84.6081 90° East 518 596 31,000  Level Chicago Center
12:35AM 41.9794 -84.4075 78° East 532 612 31,000  Level Chicago Center
12:36AM 42.0189 -84.2167 74° East 534 615 31,000  Level Chicago Center
12:37AM 42.0583 -84.0244 74° East 535 616 31,000  Level Chicago Center
12:38AM 42.0975 -83.8322 75° East 535 616 31,000  Level Chicago Center
12:39AM 42.1414 -83.6078 75° East 539 620 31,000  Level Cleveland Center
12:40AM 42.1744 -83.4347 75° East 537 618 31,000  Level Cleveland Center
12:41AM 42.2131 -83.2361 75° East 541 623 31,000 -600 Level Cleveland Center
12:42AM 42.2514 -83.0394 75° East 532 612 29,900 -1,260 Descending Cleveland Center
12:43AM 42.2869 -82.8539 75° East 517 595 28,500 -1,500 Descending Cleveland Center
12:44AM 42.3203 -82.6733 76° East 502 578 26,900 -1,680 Descending Cleveland Center
12:45AM 42.3547 -82.4928 75° East 498 573 25,200 -1,500 Descending Cleveland Center
12:46AM 42.3878 -82.3133 76° East 495 570 24,000 -600 Descending Cleveland Center
12:47AM 42.4225 -82.1233 76° East 492 566 24,000  Level Cleveland Center
12:48AM 42.4547 -81.9419 76° East 490 564 24,000  Level Cleveland Center
12:49AM 42.4886 -81.7611 76° East 490 564 24,000  Level Cleveland Center
12:50AM 42.5208 -81.5761 77° East 497 572 24,000  Level Cleveland Center
12:51AM 42.5531 -81.3925 77° East 496 571 24,000  Level Cleveland Center
12:52AM 42.5847 -81.2119 77° East 489 563 24,000  Level Cleveland Center
12:53AM 42.6167 -81.0303 77° East 489 563 24,000  Level Cleveland Center
12:54AM 42.6428 -80.8797 77° East 488 562 24,000  Level Cleveland Center
12:55AM 42.6739 -80.6978 77° East 489 563 24,000  Level Cleveland Center
12:56AM 42.7064 -80.5156 76° East 493 567 24,000  Level Cleveland Center
12:57AM 42.7364 -80.3297 78° East 498 573 24,000  Level Cleveland Center
12:58AM 42.7661 -80.1503 77° East 483 556 24,000 -960 Level Cleveland Center
12:59AM 42.7958 -79.9653 78° East 459 528 22,100 -2,700 Descending Cleveland Center
01:00AM 42.8217 -79.8089 77° East 469 540 18,600 -3,300 Descending Cleveland Center
01:01AM 42.8178 -79.6422 92° East 438 504 15,600 -3,000 Descending Cleveland Center
01:02AM 42.8372 -79.4839 80° East 424 488 12,600 -2,820 Descending Cleveland Center
01:03AM 42.8689 -79.3200 75° East 406 467 10,000 -2,040 Descending Cleveland Center
01:04AM 42.8958 -79.1869 75° East 352 405 8,600 -1,440 Descending Cleveland Center
01:05AM 42.9167 -79.0833 75° East 306 352 7,400 -1,500 Descending Buffalo TRACON
01:06AM 42.9333 -78.9833 77° East 299 344 5,900 -1,680 Descending Buffalo TRACON
01:07AM 42.9500 -78.8667 79° East 297 342 4,100 -960 Descending Buffalo TRACON
01:09AM 43.0167 -78.7167 59° Northeast 197 227 3,100 -720 Descending Buffalo TRACON
01:10AM 43.0167 -78.6667 90° East 156 180 2,100 -840 Descending Buffalo TRACON
01:11AM 42.9833 -78.6833 200° South 98 113 1,500 -600 Descending Buffalo TRACON
01:12AM 42.9500 -78.7000 200° South 105 121 1,000 -540 Descending Buffalo TRACON